createdAt,value
2019-06-27T00:00:48.965Z,2.40
2019-06-27T00:03:21.701Z,2.23
2019-06-27T00:05:50.811Z,1.83
2019-06-27T00:08:19.790Z,1.90
2019-06-27T00:10:48.700Z,2.37
2019-06-27T00:13:17.591Z,2.53
2019-06-27T00:15:59.329Z,2.17
2019-06-27T00:18:28.200Z,2.30
2019-06-27T00:21:00.619Z,2.40
2019-06-27T00:23:29.756Z,2.40
2019-06-27T00:25:58.744Z,3.03
2019-06-27T00:28:27.507Z,2.60
2019-06-27T00:30:56.372Z,2.77
2019-06-27T00:33:25.200Z,2.73
2019-06-27T00:35:55.836Z,2.47
2019-06-27T00:41:16.626Z,2.67
2019-06-27T00:43:50.067Z,2.70
2019-06-27T00:46:19.110Z,2.50
2019-06-27T00:48:47.910Z,2.70
2019-06-27T00:51:16.815Z,2.83
2019-06-27T00:53:45.665Z,3.10
2019-06-27T00:56:15.172Z,2.67
2019-06-27T00:58:44.146Z,2.30
2019-06-27T01:01:13.205Z,2.63
2019-06-27T01:03:42.040Z,2.37
2019-06-27T01:06:11.017Z,2.90
2019-06-27T01:08:39.976Z,2.60
2019-06-27T01:11:08.883Z,2.73
2019-06-27T01:13:37.955Z,2.53
2019-06-27T01:16:06.930Z,2.30
2019-06-27T01:18:35.854Z,2.40
2019-06-27T01:21:04.814Z,2.60
2019-06-27T01:23:33.715Z,2.60
2019-06-27T01:26:02.805Z,2.67
2019-06-27T01:28:31.702Z,2.40
2019-06-27T01:31:00.691Z,2.40
2019-06-27T01:33:29.800Z,2.93
2019-06-27T01:35:58.807Z,2.40
2019-06-27T01:38:27.783Z,2.60
2019-06-27T01:40:56.601Z,2.40
2019-06-27T01:43:25.474Z,2.60
2019-06-27T01:45:56.757Z,2.60
2019-06-27T01:48:25.920Z,2.23
2019-06-27T01:50:54.881Z,2.20
2019-06-27T01:53:23.885Z,2.40
2019-06-27T01:55:52.900Z,2.67
2019-06-27T01:58:21.853Z,2.60
2019-06-27T02:00:50.880Z,2.33
2019-06-27T02:03:20.063Z,2.60
2019-06-27T02:05:51.350Z,2.10
2019-06-27T02:08:20.324Z,2.90
2019-06-27T02:10:49.288Z,2.27
2019-06-27T02:13:18.148Z,3.13
2019-06-27T02:15:47.239Z,2.10
2019-06-27T02:18:16.468Z,2.47
2019-06-27T02:20:46.778Z,2.37
2019-06-27T02:23:16.136Z,2.80
2019-06-27T02:25:46.337Z,2.50
2019-06-27T02:28:15.158Z,2.20
2019-06-27T02:30:45.144Z,3.10
2019-06-27T02:33:14.202Z,2.43
2019-06-27T02:35:43.210Z,2.33
2019-06-27T02:38:12.133Z,2.60
2019-06-27T02:40:41.077Z,2.93
2019-06-27T02:43:34.256Z,2.47
2019-06-27T02:49:31.968Z,2.10
2019-06-27T02:55:30.176Z,2.73
2019-06-27T03:01:27.948Z,2.47
2019-06-27T03:07:38.123Z,2.57
2019-06-27T03:13:48.246Z,2.47
2019-06-27T03:19:58.236Z,2.83
2019-06-27T03:25:56.469Z,2.37
2019-06-27T03:31:54.189Z,2.33
2019-06-27T03:37:51.508Z,1.80
2019-06-27T03:40:20.472Z,2.57
2019-06-27T03:42:49.296Z,2.80
2019-06-27T03:45:18.274Z,1.90
2019-06-27T03:47:47.194Z,2.30
2019-06-27T03:50:16.386Z,1.80
2019-06-27T03:52:45.326Z,2.30
2019-06-27T03:55:14.506Z,2.30
2019-06-27T03:57:45.362Z,1.83
2019-06-27T04:00:19.779Z,2.40
2019-06-27T04:02:48.629Z,2.37
2019-06-27T04:05:18.595Z,2.40
2019-06-27T04:07:48.200Z,2.07
2019-06-27T04:10:17.861Z,2.60
2019-06-27T04:12:47.098Z,2.37
2019-06-27T04:15:16.253Z,2.67
2019-06-27T04:17:45.184Z,2.13
2019-06-27T04:20:14.321Z,2.17
2019-06-27T04:22:43.182Z,2.57
2019-06-27T04:25:12.591Z,2.43
2019-06-27T04:27:41.489Z,2.17
2019-06-27T04:30:10.688Z,2.43
2019-06-27T04:32:39.646Z,2.20
2019-06-27T04:35:09.056Z,2.33
2019-06-27T04:37:37.894Z,2.47
2019-06-27T04:40:07.122Z,2.10
2019-06-27T04:42:36.069Z,2.43
2019-06-27T04:45:06.222Z,2.13
2019-06-27T04:47:35.120Z,2.33
2019-06-27T04:50:04.512Z,2.17
2019-06-27T04:52:33.424Z,2.20
2019-06-27T04:55:03.983Z,2.57
2019-06-27T04:57:33.324Z,2.17
2019-06-27T05:00:02.992Z,2.30
2019-06-27T05:02:31.825Z,2.30
2019-06-27T05:05:00.744Z,2.03
2019-06-27T05:07:29.676Z,2.07
2019-06-27T05:09:58.605Z,1.90
2019-06-27T05:12:27.459Z,2.27
2019-06-27T05:14:56.704Z,2.37
2019-06-27T05:17:25.619Z,2.47
2019-06-27T05:19:54.441Z,2.47
2019-06-27T05:22:23.291Z,2.27
2019-06-27T05:24:52.242Z,2.30
2019-06-27T05:27:21.379Z,2.50
2019-06-27T05:29:50.177Z,2.33
2019-06-27T05:32:19.044Z,2.67
2019-06-27T05:34:47.866Z,2.53
2019-06-27T05:37:16.700Z,2.50
2019-06-27T05:39:45.625Z,2.47
2019-06-27T05:42:14.537Z,2.30
2019-06-27T05:44:43.320Z,2.20
2019-06-27T05:47:12.219Z,2.50
2019-06-27T05:49:41.116Z,2.27
2019-06-27T05:52:09.966Z,2.40
2019-06-27T05:54:38.905Z,1.83
2019-06-27T05:57:07.760Z,2.30
2019-06-27T05:59:36.705Z,1.63
2019-06-27T06:02:05.617Z,2.43
2019-06-27T06:04:34.427Z,2.10
2019-06-27T06:07:03.387Z,2.20
2019-06-27T06:09:33.119Z,2.17
2019-06-27T06:12:02.139Z,2.50
2019-06-27T06:14:31.121Z,1.90
2019-06-27T06:17:00.263Z,1.90
2019-06-27T06:19:29.101Z,2.30
2019-06-27T06:21:58.019Z,2.50
2019-06-27T06:24:26.878Z,2.13
2019-06-27T06:26:55.984Z,2.37
2019-06-27T06:29:24.862Z,2.13
2019-06-27T06:31:53.766Z,2.27
2019-06-27T06:34:22.643Z,1.90
2019-06-27T06:36:51.640Z,1.93
2019-06-27T06:39:20.610Z,1.97
2019-06-27T06:41:49.453Z,2.13
2019-06-27T06:44:18.383Z,2.20
2019-06-27T06:46:47.260Z,2.23
2019-06-27T06:49:16.382Z,2.17
2019-06-27T06:51:45.223Z,1.93
2019-06-27T06:54:14.133Z,2.77
2019-06-27T06:56:42.984Z,1.90
2019-06-27T06:59:12.024Z,2.23
2019-06-27T07:01:40.968Z,2.40
2019-06-27T07:04:09.861Z,2.47
2019-06-27T07:06:38.753Z,2.40
2019-06-27T07:09:07.648Z,2.57
2019-06-27T07:11:36.521Z,2.17
2019-06-27T07:14:05.727Z,2.20
2019-06-27T07:16:34.882Z,2.57
2019-06-27T07:19:03.824Z,2.17
2019-06-27T07:21:32.704Z,2.03
2019-06-27T07:24:01.599Z,2.40
2019-06-27T07:26:30.563Z,2.07
2019-06-27T07:28:59.464Z,3.13
2019-06-27T07:31:28.399Z,2.17
2019-06-27T07:33:57.301Z,2.50
2019-06-27T07:36:26.406Z,2.33
2019-06-27T07:38:55.354Z,2.70
2019-06-27T07:41:24.308Z,2.40
2019-06-27T07:43:53.108Z,2.43
2019-06-27T07:46:25.454Z,2.80
2019-06-27T07:48:53.046Z,2.53
2019-06-27T07:51:21.860Z,2.50
2019-06-27T07:53:50.802Z,2.63
2019-06-27T07:56:19.933Z,2.57
2019-06-27T07:58:48.843Z,2.77
2019-06-27T08:01:33.763Z,2.47
2019-06-27T08:03:48.639Z,3.13
2019-06-27T08:06:17.832Z,2.10
2019-06-27T08:08:46.647Z,2.43
2019-06-27T08:11:15.591Z,2.70
2019-06-27T08:13:44.397Z,2.83
2019-06-27T08:16:13.445Z,2.53
2019-06-27T08:18:42.378Z,2.73
2019-06-27T08:21:11.386Z,2.50
2019-06-27T08:23:41.952Z,2.70
2019-06-27T08:26:10.918Z,2.60
2019-06-27T08:28:39.799Z,2.23
2019-06-27T08:31:08.776Z,1.90
2019-06-27T08:33:37.659Z,2.50
2019-06-27T08:36:06.590Z,3.00
2019-06-27T08:38:35.441Z,3.17
2019-06-27T08:41:04.364Z,2.67
2019-06-27T08:43:33.217Z,2.20
2019-06-27T08:46:02.327Z,2.70
2019-06-27T08:48:31.307Z,2.30
2019-06-27T08:51:00.140Z,2.37
2019-06-27T08:53:29.052Z,2.97
2019-06-27T08:55:57.998Z,2.50
2019-06-27T08:58:26.845Z,2.40
2019-06-27T09:00:55.765Z,2.67
2019-06-27T09:03:24.697Z,2.50
2019-06-27T09:05:53.697Z,1.90
2019-06-27T09:08:22.626Z,2.50
2019-06-27T09:10:51.553Z,2.57
2019-06-27T09:13:20.501Z,2.20
2019-06-27T09:15:49.540Z,2.37
2019-06-27T09:18:18.415Z,2.43
2019-06-27T09:20:47.332Z,2.10
2019-06-27T09:23:16.154Z,2.90
2019-06-27T09:25:45.161Z,3.03
2019-06-27T09:28:14.078Z,3.23
2019-06-27T09:30:42.953Z,2.60
2019-06-27T09:33:11.762Z,2.53
2019-06-27T09:35:40.746Z,2.57
2019-06-27T09:38:09.609Z,2.40
2019-06-27T09:40:38.530Z,2.70
2019-06-27T09:43:07.453Z,2.70
2019-06-27T09:45:36.421Z,2.80
2019-06-27T09:48:05.391Z,2.60
2019-06-27T09:50:34.228Z,2.33
2019-06-27T09:53:03.081Z,2.60
2019-06-27T09:55:32.212Z,2.57
2019-06-27T09:58:01.040Z,2.50
2019-06-27T10:00:30.253Z,2.30
2019-06-27T10:02:59.072Z,2.60
2019-06-27T10:05:28.041Z,2.30
2019-06-27T10:07:56.937Z,2.47
2019-06-27T10:10:25.950Z,2.47
2019-06-27T10:12:54.827Z,3.00
2019-06-27T10:15:23.990Z,2.93
2019-06-27T10:17:52.913Z,3.47
2019-06-27T10:20:21.901Z,2.40
2019-06-27T10:22:50.778Z,3.00
2019-06-27T10:25:20.199Z,2.45
2019-06-27T10:27:49.205Z,2.73
2019-06-27T10:30:19.938Z,2.67
2019-06-27T10:32:58.965Z,2.50
2019-06-27T10:35:24.042Z,2.60
2019-06-27T10:37:52.962Z,2.50
2019-06-27T10:40:23.186Z,2.37
2019-06-27T10:42:52.047Z,3.33
2019-06-27T10:45:21.019Z,2.40
2019-06-27T10:47:49.951Z,2.60
2019-06-27T10:50:22.324Z,2.50
2019-06-27T10:52:51.167Z,2.57
2019-06-27T10:55:21.433Z,2.60
2019-06-27T10:57:50.251Z,2.50
2019-06-27T11:00:19.666Z,2.47
2019-06-27T11:02:49.211Z,2.77
2019-06-27T11:05:18.389Z,2.40
2019-06-27T11:08:04.559Z,2.00
2019-06-27T11:10:35.032Z,2.00
2019-06-27T11:13:04.006Z,1.93
2019-06-27T11:15:34.352Z,2.13
2019-06-27T11:18:03.625Z,1.80
2019-06-27T11:20:37.393Z,1.50
2019-06-27T11:23:06.009Z,1.70
2019-06-27T11:25:35.946Z,2.20
2019-06-27T11:28:05.132Z,2.10
2019-06-27T11:30:34.058Z,1.93
2019-06-27T11:33:03.769Z,1.83
2019-06-27T11:35:32.887Z,2.20
2019-06-27T11:38:02.371Z,1.77
2019-06-27T11:40:32.929Z,2.00
2019-06-27T11:43:02.216Z,1.87
2019-06-27T11:45:38.170Z,1.70
2019-06-27T11:48:06.849Z,2.37
2019-06-27T11:50:35.787Z,2.00
2019-06-27T11:53:04.787Z,2.23
2019-06-27T11:55:33.915Z,2.20
2019-06-27T11:58:02.797Z,1.97
2019-06-27T12:00:31.798Z,1.80
2019-06-27T12:03:02.029Z,1.73
2019-06-27T12:05:30.983Z,2.33
2019-06-27T12:07:59.842Z,2.03
2019-06-27T12:10:28.864Z,2.00
2019-06-27T12:12:57.702Z,2.10
2019-06-27T12:15:26.669Z,1.80
2019-06-27T12:17:55.625Z,1.80
2019-06-27T12:20:24.620Z,2.10
2019-06-27T12:22:53.469Z,1.90
2019-06-27T12:25:22.622Z,2.00
2019-06-27T12:27:51.605Z,2.03
2019-06-27T12:30:21.400Z,2.30
2019-06-27T12:32:52.361Z,2.00
2019-06-27T12:35:21.242Z,2.00
2019-06-27T12:37:50.085Z,1.63
2019-06-27T12:40:19.376Z,2.00
2019-06-27T12:42:48.472Z,2.13
2019-06-27T12:45:18.292Z,2.33
2019-06-27T12:47:47.241Z,2.30
2019-06-27T12:50:16.859Z,2.00
2019-06-27T12:52:45.795Z,2.77
2019-06-27T12:55:14.909Z,1.90
2019-06-27T12:57:43.717Z,2.10
2019-06-27T13:00:13.052Z,2.07
2019-06-27T13:02:42.176Z,2.43
2019-06-27T13:05:11.339Z,2.60
2019-06-27T13:07:40.282Z,2.07
2019-06-27T13:10:09.763Z,2.80
2019-06-27T13:12:38.928Z,2.23
2019-06-27T13:15:08.283Z,2.10
2019-06-27T13:17:37.126Z,1.90
2019-06-27T13:20:06.653Z,2.20
2019-06-27T13:22:35.507Z,2.00
2019-06-27T13:25:04.675Z,2.20
2019-06-27T13:27:36.296Z,2.40
2019-06-27T13:30:05.555Z,2.13
2019-06-27T13:32:41.692Z,2.07
2019-06-27T13:35:11.489Z,2.17
2019-06-27T13:37:40.391Z,2.40
2019-06-27T13:40:10.198Z,2.43
2019-06-27T13:42:39.117Z,2.43
2019-06-27T13:45:09.043Z,2.70
2019-06-27T13:47:37.899Z,2.03
2019-06-27T13:50:09.919Z,2.17
2019-06-27T13:52:38.768Z,1.77
2019-06-27T13:55:08.424Z,2.00
2019-06-27T13:57:37.414Z,1.73
2019-06-27T14:00:07.245Z,1.93
2019-06-27T14:02:36.141Z,2.67
2019-06-27T14:05:05.687Z,2.00
2019-06-27T14:07:34.719Z,1.97
2019-06-27T14:10:04.557Z,2.27
2019-06-27T14:12:33.432Z,2.53
2019-06-27T14:15:02.542Z,2.20
2019-06-27T14:17:33.379Z,2.08
2019-06-27T14:20:02.592Z,2.40
2019-06-27T14:22:33.988Z,2.47
2019-06-27T14:25:02.232Z,3.03
2019-06-27T14:27:31.201Z,2.77
2019-06-27T14:30:00.031Z,2.90
2019-06-27T14:32:29.256Z,2.80
2019-06-27T14:35:14.118Z,3.17
2019-06-27T14:37:28.841Z,2.43
2019-06-27T14:39:57.815Z,3.10
2019-06-27T14:42:26.660Z,3.00
2019-06-27T14:44:55.780Z,3.30
2019-06-27T14:47:24.748Z,2.80
2019-06-27T14:49:53.739Z,3.00
2019-06-27T14:52:22.580Z,2.90
2019-06-27T14:54:51.822Z,3.13
2019-06-27T14:57:21.376Z,2.87
2019-06-27T14:59:50.272Z,3.00
2019-06-27T15:02:19.248Z,2.63
2019-06-27T15:04:48.275Z,3.03
2019-06-27T15:07:21.343Z,2.70
2019-06-27T15:09:50.213Z,3.03
2019-06-27T15:12:19.298Z,2.97
2019-06-27T15:14:50.529Z,2.73
2019-06-27T15:17:18.873Z,3.47
2019-06-27T15:19:47.703Z,3.30
2019-06-27T15:22:16.703Z,3.20
2019-06-27T15:24:45.741Z,2.60
2019-06-27T15:27:14.791Z,2.67
2019-06-27T15:29:43.674Z,3.10
2019-06-27T15:32:12.478Z,2.70
2019-06-27T15:34:41.431Z,2.70
2019-06-27T15:37:10.480Z,2.50
2019-06-27T15:39:39.345Z,2.70
2019-06-27T15:42:08.351Z,2.72
2019-06-27T15:44:41.812Z,2.57
2019-06-27T15:47:11.450Z,2.80
2019-06-27T15:49:46.746Z,2.90
2019-06-27T15:52:34.664Z,2.70
2019-06-27T15:55:04.751Z,2.70
2019-06-27T15:57:33.894Z,2.80
2019-06-27T16:00:08.396Z,2.53
2019-06-27T16:02:40.092Z,3.00
2019-06-27T16:05:14.969Z,2.87
2019-06-27T16:07:43.824Z,2.50
2019-06-27T16:10:13.154Z,2.83
2019-06-27T16:12:43.383Z,2.93
2019-06-27T16:15:14.003Z,2.83
2019-06-27T16:17:47.018Z,2.50
2019-06-27T16:20:16.809Z,2.80
2019-06-27T16:22:55.352Z,2.40
2019-06-27T16:25:24.881Z,2.87
2019-06-27T16:27:53.808Z,2.70
2019-06-27T16:30:23.006Z,2.50
2019-06-27T16:32:51.981Z,3.00
2019-06-27T16:35:21.080Z,2.40
2019-06-27T16:37:50.038Z,3.00
2019-06-27T16:40:19.442Z,3.40
2019-06-27T16:42:48.365Z,2.93
2019-06-27T16:45:18.649Z,2.77
2019-06-27T16:47:47.655Z,2.83
2019-06-27T16:50:17.260Z,3.03
2019-06-27T16:52:46.234Z,2.90
2019-06-27T16:55:15.859Z,2.90
2019-06-27T16:57:44.752Z,2.40
2019-06-27T17:00:13.985Z,2.83
2019-06-27T17:02:42.861Z,2.53
2019-06-27T17:05:13.876Z,2.87
2019-06-27T17:07:42.742Z,3.33
2019-06-27T17:10:12.446Z,3.08
2019-06-27T17:12:41.307Z,2.60
2019-06-27T17:15:10.957Z,2.77
2019-06-27T17:17:39.997Z,2.80
2019-06-27T17:20:10.520Z,2.97
2019-06-27T17:22:40.412Z,2.60
2019-06-27T17:25:10.121Z,3.30
2019-06-27T17:27:39.467Z,2.80
2019-06-27T17:30:09.955Z,2.87
2019-06-27T17:32:38.819Z,2.90
2019-06-27T17:35:08.781Z,2.90
2019-06-27T17:37:37.818Z,2.70
2019-06-27T17:40:09.949Z,2.93
2019-06-27T17:42:37.668Z,2.80
2019-06-27T17:45:07.751Z,2.70
2019-06-27T17:47:37.180Z,3.03
2019-06-27T17:50:27.486Z,2.70
2019-06-27T17:53:02.692Z,2.63
2019-06-27T17:55:31.831Z,3.10
2019-06-27T17:58:00.830Z,3.60
2019-06-27T18:00:29.769Z,3.13
2019-06-27T18:02:58.606Z,3.07
2019-06-27T18:05:27.643Z,2.80
2019-06-27T18:07:57.578Z,3.00
2019-06-27T18:10:28.621Z,3.00
2019-06-27T18:12:58.412Z,2.60
2019-06-27T18:15:27.623Z,2.90
2019-06-27T18:17:57.417Z,3.10
2019-06-27T18:20:26.340Z,3.30
2019-06-27T18:22:55.287Z,3.17
2019-06-27T18:25:41.833Z,2.80
2019-06-27T18:28:14.676Z,2.90
2019-06-27T18:30:43.540Z,2.70
2019-06-27T18:33:12.438Z,2.80
2019-06-27T18:35:41.502Z,2.90
2019-06-27T18:38:15.273Z,2.93
2019-06-27T18:40:44.207Z,3.20
2019-06-27T18:43:13.181Z,3.30
2019-06-27T18:45:44.735Z,3.23
2019-06-27T18:48:13.519Z,2.83
2019-06-27T18:50:50.032Z,3.40
2019-06-27T18:53:19.337Z,3.50
2019-06-27T18:55:48.878Z,3.03
2019-06-27T18:58:18.295Z,3.13
2019-06-27T19:00:48.165Z,3.07
2019-06-27T19:03:22.524Z,3.37
2019-06-27T19:06:07.171Z,2.87
2019-06-27T19:09:02.426Z,3.40
2019-06-27T19:11:45.273Z,3.80
2019-06-27T19:14:16.759Z,3.50
2019-06-27T19:16:53.389Z,3.23
2019-06-27T19:19:38.538Z,3.80
2019-06-27T19:22:26.544Z,3.23
2019-06-27T19:25:18.439Z,3.50
2019-06-27T19:28:01.276Z,3.40
2019-06-27T19:30:31.424Z,2.90
2019-06-27T19:36:03.066Z,3.00
2019-06-27T19:38:45.546Z,3.27
2019-06-27T19:41:20.669Z,3.20
2019-06-27T19:43:49.536Z,3.17
2019-06-27T19:46:18.677Z,3.10
2019-06-27T19:48:47.522Z,2.90
2019-06-27T19:51:16.444Z,2.83
2019-06-27T19:53:45.286Z,3.70
2019-06-27T19:56:14.287Z,3.10
2019-06-27T19:58:45.578Z,3.27
2019-06-27T20:01:18.449Z,3.10
2019-06-27T20:03:47.390Z,2.90
2019-06-27T20:06:16.334Z,3.20
2019-06-27T20:08:54.354Z,2.53
2019-06-27T20:11:23.266Z,2.77
2019-06-27T20:13:54.907Z,3.17
2019-06-27T20:16:23.852Z,3.20
2019-06-27T20:18:53.882Z,2.80
2019-06-27T20:21:22.776Z,3.00
2019-06-27T20:23:51.724Z,2.90
2019-06-27T20:26:20.746Z,2.77
2019-06-27T20:28:52.300Z,2.73
2019-06-27T20:31:21.216Z,3.00
2019-06-27T20:33:50.898Z,3.03
2019-06-27T20:36:20.170Z,2.97
2019-06-27T20:38:49.060Z,2.53
2019-06-27T20:41:17.998Z,2.97
2019-06-27T20:43:46.870Z,3.07
2019-06-27T20:46:16.041Z,2.83
2019-06-27T20:48:45.900Z,3.03
2019-06-27T20:51:14.741Z,3.00
2019-06-27T20:53:47.479Z,3.43
2019-06-27T20:56:16.350Z,2.90
2019-06-27T20:58:45.259Z,3.10
2019-06-27T21:01:14.122Z,2.90
2019-06-27T21:03:43.051Z,3.13
2019-06-27T21:06:17.467Z,3.20
2019-06-27T21:08:51.986Z,3.30
2019-06-27T21:11:21.239Z,3.10
2019-06-27T21:13:50.479Z,2.73
2019-06-27T21:16:22.224Z,2.87
2019-06-27T21:19:15.903Z,3.13
2019-06-27T21:21:44.875Z,3.20
2019-06-27T21:24:14.957Z,3.23
2019-06-27T21:26:44.926Z,3.30
2019-06-27T21:29:16.340Z,2.73
2019-06-27T21:31:51.411Z,3.70
2019-06-27T21:34:23.590Z,3.00
2019-06-27T21:36:52.571Z,2.70
2019-06-27T21:39:21.432Z,3.30
2019-06-27T21:41:50.330Z,2.83
2019-06-27T21:44:20.438Z,3.17
2019-06-27T21:46:49.602Z,2.90
2019-06-27T21:49:18.792Z,3.50
2019-06-27T21:51:47.799Z,3.17
2019-06-27T21:54:16.712Z,2.80
2019-06-27T21:56:45.717Z,3.63
2019-06-27T21:59:14.673Z,3.00
2019-06-27T22:01:45.722Z,3.20
2019-06-27T22:04:14.639Z,2.80
2019-06-27T22:06:43.803Z,2.93
2019-06-27T22:09:23.849Z,3.30
2019-06-27T22:11:44.747Z,3.20
2019-06-27T22:14:16.541Z,2.90
2019-06-27T22:16:46.632Z,3.10
2019-06-27T22:19:16.916Z,3.30
2019-06-27T22:21:46.133Z,3.77
2019-06-27T22:24:15.099Z,2.80
2019-06-27T22:26:44.833Z,3.53
2019-06-27T22:29:13.745Z,3.30
2019-06-27T22:31:42.650Z,2.83
2019-06-27T22:34:11.475Z,3.30
2019-06-27T22:36:40.427Z,3.00
2019-06-27T22:39:39.887Z,3.07
2019-06-27T22:42:15.799Z,3.03
2019-06-27T22:45:02.740Z,3.17
2019-06-27T22:47:50.147Z,3.10
2019-06-27T22:50:39.052Z,3.07
2019-06-27T22:53:11.977Z,3.40
2019-06-27T22:55:41.154Z,3.43
2019-06-27T22:58:11.766Z,3.27
2019-06-27T23:00:41.066Z,3.43
2019-06-27T23:03:09.991Z,3.70
2019-06-27T23:05:39.010Z,3.60
2019-06-27T23:08:07.906Z,3.20
2019-06-27T23:10:37.095Z,3.50
2019-06-27T23:13:10.075Z,3.87
2019-06-27T23:15:39.262Z,3.27
2019-06-27T23:18:08.831Z,3.53
2019-06-27T23:20:37.637Z,3.80
2019-06-27T23:23:06.665Z,3.17
2019-06-27T23:25:35.855Z,3.63
2019-06-27T23:28:04.805Z,4.13
2019-06-27T23:30:33.970Z,3.67
2019-06-27T23:33:02.826Z,3.60
2019-06-27T23:35:31.719Z,3.90
2019-06-27T23:38:00.563Z,3.20
2019-06-27T23:40:29.570Z,3.97
2019-06-27T23:42:58.513Z,3.57
2019-06-27T23:45:27.568Z,3.87
2019-06-27T23:47:56.387Z,3.83
2019-06-27T23:50:25.392Z,3.73
2019-06-27T23:52:54.302Z,4.00
2019-06-27T23:55:23.455Z,3.80
2019-06-27T23:57:52.467Z,4.43
